Time;durP1;ratioP1;P1;durP2;ratioP2;P2;SDS_P1;SDS_P2;PMS_P1;PMS_P2;Temp;Humidity;BMP_temperature;BMP_pressure;BME280_temperature;BME280_humidity;BME280_pressure;Samples;Min_cycle;Max_cycle;Signal;HPM_P1;HPM_P2
2019/10/26 00:02:25;;;;;;;53.8;35.3;;;;;;;;;;;;;
2019/10/26 00:04:50;;;;;;;41.8;29.6;;;;;;;;;;;;;
2019/10/26 00:07:15;;;;;;;34.8;23.8;;;;;;;;;;;;;
2019/10/26 00:09:40;;;;;;;27.8;19;;;;;;;;;;;;;
2019/10/26 00:12:05;;;;;;;21.8;13.7;;;;;;;;;;;;;
2019/10/26 00:14:30;;;;;;;18.2;12.1;;;;;;;;;;;;;
2019/10/26 00:16:55;;;;;;;13.3;9.6;;;;;;;;;;;;;
2019/10/26 00:19:20;;;;;;;11.1;7.2;;;;;;;;;;;;;
2019/10/26 00:21:45;;;;;;;9.7;6.6;;;;;;;;;;;;;
2019/10/26 00:24:33;;;;;;;8.3;6.3;;;;;;;;;;;;;
2019/10/26 00:26:58;;;;;;;9.4;5.8;;;;;;;;;;;;;
2019/10/26 00:29:23;;;;;;;13.1;8.6;;;;;;;;;;;;;
2019/10/26 00:32:03;;;;;;;17.4;12.9;;;;;;;;;;;;;
2019/10/26 00:34:29;;;;;;;8.9;5.5;;;;;;;;;;;;;
2019/10/26 00:36:54;;;;;;;10.3;4.7;;;;;;;;;;;;;
2019/10/26 00:39:19;;;;;;;6.8;4.7;;;;;;;;;;;;;
2019/10/26 00:41:44;;;;;;;6.8;4.6;;;;;;;;;;;;;
2019/10/26 00:44:09;;;;;;;8.1;4.4;;;;;;;;;;;;;
2019/10/26 00:46:34;;;;;;;9.1;5.7;;;;;;;;;;;;;
2019/10/26 00:49:00;;;;;;;8.6;5.7;;;;;;;;;;;;;
2019/10/26 00:51:25;;;;;;;16.6;10.2;;;;;;;;;;;;;
2019/10/26 00:53:50;;;;;;;11.6;7.4;;;;;;;;;;;;;
2019/10/26 00:56:17;;;;;;;8.7;6.4;;;;;;;;;;;;;
2019/10/26 00:58:42;;;;;;;8.9;6.2;;;;;;;;;;;;;
2019/10/26 01:01:07;;;;;;;8.8;5.8;;;;;;;;;;;;;
2019/10/26 01:03:33;;;;;;;8.6;5.7;;;;;;;;;;;;;
2019/10/26 01:05:58;;;;;;;8.9;5.9;;;;;;;;;;;;;
2019/10/26 01:08:23;;;;;;;7.8;5.3;;;;;;;;;;;;;
2019/10/26 01:10:48;;;;;;;8.9;5.9;;;;;;;;;;;;;
2019/10/26 01:13:13;;;;;;;9;6.9;;;;;;;;;;;;;
2019/10/26 01:15:38;;;;;;;12.6;8.8;;;;;;;;;;;;;
2019/10/26 01:18:03;;;;;;;12.5;9.8;;;;;;;;;;;;;
2019/10/26 01:20:29;;;;;;;11.6;7.5;;;;;;;;;;;;;
2019/10/26 01:22:54;;;;;;;14.8;9.3;;;;;;;;;;;;;
2019/10/26 01:25:19;;;;;;;11;7.1;;;;;;;;;;;;;
2019/10/26 01:27:44;;;;;;;9.2;6.7;;;;;;;;;;;;;
2019/10/26 01:30:09;;;;;;;10.5;6.3;;;;;;;;;;;;;
2019/10/26 01:32:34;;;;;;;8.3;6.2;;;;;;;;;;;;;
2019/10/26 01:34:59;;;;;;;18.3;11;;;;;;;;;;;;;
2019/10/26 01:37:25;;;;;;;24.9;13.7;;;;;;;;;;;;;
2019/10/26 01:39:50;;;;;;;25.5;13.8;;;;;;;;;;;;;
2019/10/26 01:42:15;;;;;;;33.1;19.2;;;;;;;;;;;;;
2019/10/26 01:44:40;;;;;;;30;17.6;;;;;;;;;;;;;
2019/10/26 01:48:05;;;;;;;18.8;11.9;;;;;;;;;;;;;
2019/10/26 01:54:20;;;;;;;13.8;11.1;;;;;;;;;;;;;
2019/10/26 01:56:46;;;;;;;13.1;9.8;;;;;;;;;;;;;
2019/10/26 01:59:11;;;;;;;54;34.2;;;;;;;;;;;;;
2019/10/26 02:01:36;;;;;;;26.1;18.9;;;;;;;;;;;;;
2019/10/26 02:04:02;;;;;;;15.6;11.7;;;;;;;;;;;;;
2019/10/26 02:06:26;;;;;;;13.2;9.6;;;;;;;;;;;;;
2019/10/26 02:08:51;;;;;;;14.9;9.5;;;;;;;;;;;;;
2019/10/26 02:11:16;;;;;;;9.7;7.9;;;;;;;;;;;;;
2019/10/26 02:13:41;;;;;;;10.1;7.8;;;;;;;;;;;;;
2019/10/26 02:16:06;;;;;;;8.7;6.9;;;;;;;;;;;;;
2019/10/26 02:18:31;;;;;;;9;7.2;;;;;;;;;;;;;
2019/10/26 02:20:56;;;;;;;9.8;6.2;;;;;;;;;;;;;
2019/10/26 02:23:22;;;;;;;10.8;6.4;;;;;;;;;;;;;
2019/10/26 02:25:47;;;;;;;8.2;6.2;;;;;;;;;;;;;
2019/10/26 02:28:12;;;;;;;9.5;7.2;;;;;;;;;;;;;
2019/10/26 02:30:37;;;;;;;7.4;5.7;;;;;;;;;;;;;
2019/10/26 02:33:02;;;;;;;9.6;6.9;;;;;;;;;;;;;
2019/10/26 02:35:27;;;;;;;8.9;7;;;;;;;;;;;;;
2019/10/26 02:37:52;;;;;;;7.2;5.6;;;;;;;;;;;;;
2019/10/26 02:40:17;;;;;;;7.5;5.7;;;;;;;;;;;;;
2019/10/26 02:42:43;;;;;;;9;6.1;;;;;;;;;;;;;
2019/10/26 02:45:08;;;;;;;7.2;5.2;;;;;;;;;;;;;
2019/10/26 02:47:33;;;;;;;8.7;5.6;;;;;;;;;;;;;
2019/10/26 02:49:58;;;;;;;7.3;5;;;;;;;;;;;;;
2019/10/26 02:52:23;;;;;;;7.9;4.9;;;;;;;;;;;;;
2019/10/26 02:54:48;;;;;;;6.2;4.9;;;;;;;;;;;;;
2019/10/26 02:57:13;;;;;;;6.1;4.7;;;;;;;;;;;;;
2019/10/26 02:59:38;;;;;;;7;4.7;;;;;;;;;;;;;
2019/10/26 03:02:03;;;;;;;6.3;4.6;;;;;;;;;;;;;
2019/10/26 03:04:29;;;;;;;6.2;4.6;;;;;;;;;;;;;
2019/10/26 03:06:54;;;;;;;6.9;4.6;;;;;;;;;;;;;
2019/10/26 03:09:19;;;;;;;5.3;4.3;;;;;;;;;;;;;
2019/10/26 03:11:44;;;;;;;6.9;4.7;;;;;;;;;;;;;
2019/10/26 03:14:09;;;;;;;5.2;4.6;;;;;;;;;;;;;
2019/10/26 03:16:38;;;;;;;7.7;4.4;;;;;;;;;;;;;
2019/10/26 03:19:37;;;;;;;7.9;5.1;;;;;;;;;;;;;
2019/10/26 03:21:25;;;;;;;8.3;4.8;;;;;;;;;;;;;
2019/10/26 03:23:53;;;;;;;6.9;5.6;;;;;;;;;;;;;
2019/10/26 03:26:19;;;;;;;8.2;6.5;;;;;;;;;;;;;
2019/10/26 03:28:40;;;;;;;7.9;5.7;;;;;;;;;;;;;
2019/10/26 03:31:05;;;;;;;6.4;5.7;;;;;;;;;;;;;
2019/10/26 03:33:30;;;;;;;6.7;4.9;;;;;;;;;;;;;
2019/10/26 03:35:55;;;;;;;8.9;4.9;;;;;;;;;;;;;
2019/10/26 03:38:20;;;;;;;7.6;4.6;;;;;;;;;;;;;
2019/10/26 03:40:45;;;;;;;7.2;4.9;;;;;;;;;;;;;
2019/10/26 03:43:10;;;;;;;7.1;5.2;;;;;;;;;;;;;
2019/10/26 03:45:35;;;;;;;6.2;4.7;;;;;;;;;;;;;
2019/10/26 03:48:00;;;;;;;6.4;4.8;;;;;;;;;;;;;
2019/10/26 03:50:25;;;;;;;6.9;4.3;;;;;;;;;;;;;
2019/10/26 03:52:50;;;;;;;5.2;3.9;;;;;;;;;;;;;
2019/10/26 03:55:15;;;;;;;6.2;3.9;;;;;;;;;;;;;
2019/10/26 03:57:40;;;;;;;6.8;4.1;;;;;;;;;;;;;
2019/10/26 04:02:28;;;;;;;6.5;4.1;;;;;;;8.5;96.37012;1007.32;;;;
2019/10/26 04:04:53;;;;;;;4.8;3.7;;;;;;;8.51;96.47461;1007.341;;;;
2019/10/26 04:07:18;;;;;;;8.6;4.6;;;;;;;8.5;96.32422;1007.344;;;;
2019/10/26 04:09:43;;;;;;;7.8;4.3;;;;;;;8.48;96.78809;1007.338;;;;
2019/10/26 04:12:08;;;;;;;4.8;4;;;;;;;8.44;97.67773;1007.272;;;;
2019/10/26 04:14:33;;;;;;;5.8;4;;;;;;;8.35;97.77148;1007.27;;;;
2019/10/26 04:16:58;;;;;;;7.1;4.2;;;;;;;8.37;97.78613;1007.193;;;;
2019/10/26 04:19:23;;;;;;;6.5;4.4;;;;;;;8.34;98.5459;1007.211;;;;
2019/10/26 04:21:49;;;;;;;7.6;4.2;;;;;;;8.39;97.62207;1007.232;;;;
2019/10/26 04:24:14;;;;;;;6.3;4.3;;;;;;;8.44;97.0625;1007.241;;;;
2019/10/26 04:26:39;;;;;;;5.6;3.9;;;;;;;8.38;96.92285;1007.267;;;;
2019/10/26 04:29:04;;;;;;;6.7;4.2;;;;;;;8.44;96.79102;1007.27;;;;
2019/10/26 04:31:29;;;;;;;6.8;4.3;;;;;;;8.38;96.75391;1007.274;;;;
2019/10/26 04:33:54;;;;;;;7.9;4.2;;;;;;;8.41;96.67871;1007.321;;;;
2019/10/26 04:36:19;;;;;;;5.1;3.8;;;;;;;8.42;96.35156;1007.255;;;;
2019/10/26 04:38:44;;;;;;;5.2;3.7;;;;;;;8.37;96.12305;1007.246;;;;
2019/10/26 04:41:09;;;;;;;7;3.9;;;;;;;8.29;95.99316;1007.27;;;;
2019/10/26 04:43:34;;;;;;;6.1;3.8;;;;;;;8.25;96.18652;1007.304;;;;
2019/10/26 04:46:00;;;;;;;6;3.7;;;;;;;8.18;96.25195;1007.338;;;;
2019/10/26 04:48:25;;;;;;;6.9;3.9;;;;;;;8.06;96.71484;1007.319;;;;
2019/10/26 04:50:50;;;;;;;7.9;3.8;;;;;;;7.96;97.27344;1007.343;;;;
2019/10/26 04:53:15;;;;;;;5.3;3.9;;;;;;;8.05;97.11328;1007.311;;;;
2019/10/26 04:55:40;;;;;;;8.2;3.9;;;;;;;8.07;97.10449;1007.289;;;;
2019/10/26 04:58:05;;;;;;;5.3;4.1;;;;;;;8.09;97.41602;1007.226;;;;
2019/10/26 05:00:30;;;;;;;6.8;3.9;;;;;;;8.14;97.0293;1007.209;;;;
2019/10/26 05:02:55;;;;;;;9.7;4.1;;;;;;;8.2;96.57715;1007.249;;;;
2019/10/26 05:05:20;;;;;;;7;4.3;;;;;;;8.23;96.5127;1007.232;;;;
2019/10/26 05:07:45;;;;;;;6.7;4.7;;;;;;;8.2;96.5293;1007.247;;;;
2019/10/26 05:10:10;;;;;;;4.8;3.8;;;;;;;8.2;96.13281;1007.261;;;;
2019/10/26 05:12:36;;;;;;;6.6;4.1;;;;;;;8.15;96.05273;1007.267;;;;
2019/10/26 05:15:01;;;;;;;7.8;3.9;;;;;;;8.07;96.61328;1007.302;;;;
2019/10/26 05:17:26;;;;;;;8.6;4.1;;;;;;;8.14;96.58594;1007.302;;;;
2019/10/26 05:19:51;;;;;;;5.9;3.8;;;;;;;8.21;95.92773;1007.358;;;;
2019/10/26 05:22:16;;;;;;;5.8;3.7;;;;;;;8.17;95.74902;1007.364;;;;
2019/10/26 05:24:41;;;;;;;5;3.6;;;;;;;8.14;95.83398;1007.349;;;;
2019/10/26 05:27:06;;;;;;;6.1;4;;;;;;;8.05;95.78223;1007.355;;;;
2019/10/26 05:29:31;;;;;;;8.9;3.8;;;;;;;7.92;96.46875;1007.347;;;;
2019/10/26 05:31:56;;;;;;;5.8;3.9;;;;;;;7.93;96.62988;1007.371;;;;
2019/10/26 05:34:22;;;;;;;5.3;3.5;;;;;;;8.04;95.90137;1007.399;;;;
2019/10/26 05:36:47;;;;;;;6.2;3.7;;;;;;;8.04;95.58398;1007.453;;;;
2019/10/26 05:39:12;;;;;;;6.7;3.7;;;;;;;7.98;95.5498;1007.455;;;;
2019/10/26 05:41:37;;;;;;;7;3.6;;;;;;;7.88;96.11719;1007.465;;;;
2019/10/26 05:44:02;;;;;;;4.7;3.6;;;;;;;7.87;96.23145;1007.457;;;;
2019/10/26 05:46:27;;;;;;;4.2;3.5;;;;;;;7.92;96.05664;1007.495;;;;
2019/10/26 05:48:52;;;;;;;5.2;3.6;;;;;;;7.95;95.72363;1007.473;;;;
2019/10/26 05:51:18;;;;;;;8;3.8;;;;;;;7.87;95.53711;1007.484;;;;
2019/10/26 05:53:56;;;;;;;5.7;3.4;;;;;;;7.83;95.82324;1007.462;;;;
2019/10/26 05:56:08;;;;;;;5.1;3.4;;;;;;;7.87;95.72852;1007.48;;;;
2019/10/26 05:58:33;;;;;;;4.4;3.7;;;;;;;7.82;95.70508;1007.468;;;;
2019/10/26 06:00:58;;;;;;;4.7;3.6;;;;;;;7.87;95.39844;1007.486;;;;
2019/10/26 06:03:23;;;;;;;6.5;3.6;;;;;;;7.85;95.55371;1007.512;;;;
2019/10/26 06:05:48;;;;;;;6.6;4.7;;;;;;;7.84;95.64258;1007.489;;;;
2019/10/26 06:08:14;;;;;;;6.6;4;;;;;;;7.79;95.65332;1007.541;;;;
2019/10/26 06:10:39;;;;;;;4.9;3.6;;;;;;;7.89;95.45898;1007.611;;;;
2019/10/26 06:13:04;;;;;;;6.1;3.2;;;;;;;7.92;95.38574;1007.573;;;;
2019/10/26 06:15:29;;;;;;;7.3;3.6;;;;;;;7.93;95.77637;1007.574;;;;
2019/10/26 06:17:54;;;;;;;7.5;3.8;;;;;;;7.97;96.20605;1007.542;;;;
2019/10/26 06:20:19;;;;;;;7;4.3;;;;;;;8.06;96.5332;1007.519;;;;
2019/10/26 06:22:44;;;;;;;8.7;4.4;;;;;;;8.17;96.40918;1007.526;;;;
2019/10/26 06:25:09;;;;;;;5.2;3.4;;;;;;;8.25;95.92871;1007.554;;;;
2019/10/26 06:27:34;;;;;;;5.7;3.3;;;;;;;8.37;94.58594;1007.603;;;;
2019/10/26 06:30:00;;;;;;;5.6;3.1;;;;;;;8.43;93.91797;1007.659;;;;
2019/10/26 06:32:25;;;;;;;5.7;3.5;;;;;;;8.51;93.38672;1007.716;;;;
2019/10/26 06:34:50;;;;;;;4.6;3.4;;;;;;;8.57;93.16113;1007.798;;;;
2019/10/26 06:37:15;;;;;;;5.7;3.6;;;;;;;8.6;92.66602;1007.84;;;;
2019/10/26 06:39:40;;;;;;;5.8;3.3;;;;;;;8.53;92.60449;1007.85;;;;
2019/10/26 06:42:05;;;;;;;7.2;3.9;;;;;;;8.59;92.8457;1007.852;;;;
2019/10/26 06:44:30;;;;;;;6.4;3.7;;;;;;;8.68;92.4668;1007.918;;;;
2019/10/26 06:46:55;;;;;;;4.1;3.4;;;;;;;8.69;92.05762;1007.87;;;;
2019/10/26 06:49:20;;;;;;;7.9;3.4;;;;;;;8.59;92.67676;1007.826;;;;
2019/10/26 06:51:45;;;;;;;5.2;3.4;;;;;;;8.29;94.41016;1007.806;;;;
2019/10/26 06:54:11;;;;;;;9;3.4;;;;;;;8.63;93.64258;1007.808;;;;
2019/10/26 06:56:36;;;;;;;7.3;4.2;;;;;;;8.87;92.31543;1007.804;;;;
2019/10/26 06:59:01;;;;;;;4.6;3.4;;;;;;;9.02;91.69434;1007.748;;;;
2019/10/26 07:01:26;;;;;;;6.6;3.6;;;;;;;9.15;91.32324;1007.755;;;;
2019/10/26 07:03:51;;;;;;;5.2;3.3;;;;;;;9.26;91.28906;1007.796;;;;
2019/10/26 07:06:16;;;;;;;5.3;4.2;;;;;;;9.36;93.21875;1007.738;;;;
2019/10/26 07:08:41;;;;;;;9;5.5;;;;;;;9.46;94.46191;1007.764;;;;
2019/10/26 07:11:06;;;;;;;10.1;5.9;;;;;;;9.67;94.19922;1007.765;;;;
2019/10/26 07:13:31;;;;;;;9.8;6.3;;;;;;;9.85;93.63281;1007.785;;;;
2019/10/26 07:15:56;;;;;;;7.6;5.8;;;;;;;9.98;93.07617;1007.799;;;;
2019/10/26 07:18:21;;;;;;;6.5;5;;;;;;;10.09;92.64258;1007.824;;;;
2019/10/26 07:20:47;;;;;;;7.1;4.8;;;;;;;10.15;92.11816;1007.81;;;;
2019/10/26 07:23:12;;;;;;;6.7;3.5;;;;;;;10.16;92.6709;1007.778;;;;
2019/10/26 07:25:37;;;;;;;7.7;4.5;;;;;;;10.23;92.70801;1007.808;;;;
2019/10/26 07:28:02;;;;;;;8.4;4;;;;;;;10.28;92.21582;1007.812;;;;
2019/10/26 07:30:27;;;;;;;6.1;3.9;;;;;;;10.3;92.29785;1007.835;;;;
2019/10/26 07:32:52;;;;;;;7.2;5.1;;;;;;;10.44;91.87109;1007.795;;;;
2019/10/26 07:35:17;;;;;;;8.2;5.5;;;;;;;10.73;90.69727;1007.775;;;;
2019/10/26 07:37:42;;;;;;;6.6;5.9;;;;;;;10.79;89.6084;1007.751;;;;
2019/10/26 07:40:07;;;;;;;10.3;5.6;;;;;;;10.86;89.7959;1007.755;;;;
2019/10/26 07:42:32;;;;;;;7.7;5.5;;;;;;;10.84;89.41211;1007.719;;;;
2019/10/26 07:44:57;;;;;;;7.4;5.6;;;;;;;10.83;90.22559;1007.777;;;;
2019/10/26 07:47:23;;;;;;;10;5.7;;;;;;;10.99;89.42285;1007.767;;;;
2019/10/26 07:49:48;;;;;;;8.3;5.4;;;;;;;11.06;89.4375;1007.662;;;;
2019/10/26 07:52:13;;;;;;;9.4;5.4;;;;;;;11.02;89.87305;1007.646;;;;
2019/10/26 07:54:38;;;;;;;5;3.8;;;;;;;11.2;89.24512;1007.662;;;;
2019/10/26 07:57:03;;;;;;;6.6;4;;;;;;;11.15;89.98145;1007.618;;;;
2019/10/26 07:59:28;;;;;;;5.6;3.9;;;;;;;11.53;88.52246;1007.625;;;;
2019/10/26 08:01:53;;;;;;;3.9;3.3;;;;;;;12.69;84.91504;1007.641;;;;
2019/10/26 08:04:19;;;;;;;6.6;3.1;;;;;;;14.22;80.99023;1007.625;;;;
2019/10/26 08:06:44;;;;;;;5.1;2.8;;;;;;;15.13;76.11523;1007.628;;;;
2019/10/26 08:09:09;;;;;;;5.2;2.9;;;;;;;15.73;73.49805;1007.614;;;;
2019/10/26 08:11:34;;;;;;;5.8;2.7;;;;;;;16.77;71.56934;1007.65;;;;
2019/10/26 08:13:59;;;;;;;6.9;2.8;;;;;;;17.93;64.88867;1007.58;;;;
2019/10/26 08:16:24;;;;;;;8.7;2.8;;;;;;;19.48;57.68652;1007.583;;;;
2019/10/26 08:18:49;;;;;;;5.4;2.4;;;;;;;19.01;58.58301;1007.492;;;;
2019/10/26 08:21:14;;;;;;;8.7;2.5;;;;;;;18.23;61.58984;1007.498;;;;
2019/10/26 08:23:39;;;;;;;5;2.4;;;;;;;18.25;61.37012;1007.506;;;;
2019/10/26 08:26:05;;;;;;;6.9;2.5;;;;;;;18.79;60.01074;1007.51;;;;
2019/10/26 08:28:30;;;;;;;9.6;2.5;;;;;;;19.8;56.74609;1007.501;;;;
2019/10/26 08:30:55;;;;;;;4.7;2.3;;;;;;;19.74;55.60449;1007.562;;;;
2019/10/26 08:33:20;;;;;;;5.2;2.1;;;;;;;19.05;57.49023;1007.546;;;;
2019/10/26 08:35:45;;;;;;;6.9;2.3;;;;;;;18.97;58.35645;1007.604;;;;
2019/10/26 08:38:25;;;;;;;4.5;2.5;;;;;;;18.74;60.05176;1007.568;;;;
2019/10/26 08:40:35;;;;;;;7.4;2.6;;;;;;;18.7;59.78906;1007.581;;;;
2019/10/26 08:43:00;;;;;;;4.5;3.1;;;;;;;18.42;60.11328;1007.569;;;;
2019/10/26 08:45:25;;;;;;;5.1;2.6;;;;;;;18.92;58.38379;1007.578;;;;
2019/10/26 08:47:51;;;;;;;4.2;2.7;;;;;;;19.84;55.88574;1007.566;;;;
2019/10/26 08:50:16;;;;;;;7.7;2.9;;;;;;;20.37;54.55957;1007.548;;;;
2019/10/26 08:52:41;;;;;;;4;2.7;;;;;;;19.79;55.87891;1007.514;;;;
2019/10/26 08:55:06;;;;;;;7.2;2.6;;;;;;;20.95;52.24023;1007.531;;;;
2019/10/26 08:57:31;;;;;;;4.3;2.5;;;;;;;20.79;53.15918;1007.515;;;;
2019/10/26 08:59:56;;;;;;;5.1;2.6;;;;;;;20.48;53.84766;1007.533;;;;
2019/10/26 09:02:21;;;;;;;6;2.9;;;;;;;20.74;52.91797;1007.484;;;;
2019/10/26 09:04:46;;;;;;;4.4;2.6;;;;;;;21.32;51.49805;1007.497;;;;
2019/10/26 09:07:11;;;;;;;5.2;2.5;;;;;;;22.28;48.8457;1007.504;;;;
2019/10/26 09:09:37;;;;;;;3.4;2.5;;;;;;;22.3;48.38965;1007.514;;;;
2019/10/26 09:12:02;;;;;;;3.5;2.1;;;;;;;20.5;53.47559;1007.487;;;;
2019/10/26 09:14:27;;;;;;;4.7;2.5;;;;;;;20.58;53.07422;1007.502;;;;
2019/10/26 09:16:53;;;;;;;4.8;2.4;;;;;;;21.21;50.99219;1007.452;;;;
2019/10/26 09:19:17;;;;;;;4.3;2.2;;;;;;;21.98;49.23535;1007.409;;;;
2019/10/26 09:21:42;;;;;;;8.3;2.5;;;;;;;21.69;50.11914;1007.391;;;;
2019/10/26 09:24:07;;;;;;;6.5;3.7;;;;;;;20.74;52.89453;1007.412;;;;
2019/10/26 09:26:33;;;;;;;4.9;2.4;;;;;;;21.1;51.56543;1007.411;;;;
2019/10/26 09:28:58;;;;;;;5.7;2.2;;;;;;;20.84;52.40234;1007.357;;;;
2019/10/26 09:31:23;;;;;;;6.2;2.5;;;;;;;21.56;50.58594;1007.311;;;;
2019/10/26 09:33:48;;;;;;;6.2;1.9;;;;;;;21.82;50.33398;1007.26;;;;
2019/10/26 09:36:13;;;;;;;7;2.8;;;;;;;21.33;51.49902;1007.248;;;;
2019/10/26 09:38:38;;;;;;;3.2;2.1;;;;;;;20.74;52.98828;1007.209;;;;
2019/10/26 09:41:04;;;;;;;4.1;2.1;;;;;;;21.67;50.46875;1007.12;;;;
2019/10/26 09:43:29;;;;;;;3.4;2;;;;;;;21.36;51.31348;1007.136;;;;
2019/10/26 09:45:54;;;;;;;4.4;2;;;;;;;21.77;50.42188;1007.1;;;;
2019/10/26 09:48:19;;;;;;;4.1;1.9;;;;;;;20.94;52.75488;1007.124;;;;
2019/10/26 09:50:44;;;;;;;3.2;2.1;;;;;;;20.85;52.9541;1007.122;;;;
2019/10/26 09:53:09;;;;;;;3.5;1.9;;;;;;;21.8;50.9541;1007.051;;;;
2019/10/26 09:55:35;;;;;;;4.2;2.1;;;;;;;20.93;53.15137;1006.996;;;;
2019/10/26 09:58:00;;;;;;;3.8;1.8;;;;;;;20.31;54.86719;1007.045;;;;
2019/10/26 10:00:25;;;;;;;4.4;3.3;;;;;;;20.52;54.28613;1007.017;;;;
2019/10/26 10:02:50;;;;;;;3.1;2;;;;;;;20.32;54.77539;1006.995;;;;
2019/10/26 10:05:16;;;;;;;5.3;1.9;;;;;;;20.17;55.45898;1007.02;;;;
2019/10/26 10:07:41;;;;;;;4.5;2.1;;;;;;;21.02;53.45605;1007.06;;;;
2019/10/26 10:10:06;;;;;;;5.5;2.2;;;;;;;20.5;54.58691;1007.044;;;;
2019/10/26 10:12:31;;;;;;;6.1;2.5;;;;;;;20.12;55.55957;1006.98;;;;
2019/10/26 10:14:56;;;;;;;3.4;2.4;;;;;;;21.02;53.40918;1006.924;;;;
2019/10/26 10:17:21;;;;;;;5.7;2.7;;;;;;;20.91;53.39648;1006.916;;;;
2019/10/26 10:19:47;;;;;;;5.3;2.4;;;;;;;20.89;53.37012;1006.893;;;;
2019/10/26 10:22:12;;;;;;;4.9;2.2;;;;;;;21.2;52.59766;1006.906;;;;
2019/10/26 10:24:37;;;;;;;4.4;2.5;;;;;;;20.23;55.91211;1006.894;;;;
2019/10/26 10:27:02;;;;;;;4.6;2.4;;;;;;;20.08;56.01074;1006.871;;;;
2019/10/26 10:29:27;;;;;;;5.2;2.4;;;;;;;20.09;56.71387;1006.863;;;;
2019/10/26 10:31:52;;;;;;;6.2;2.7;;;;;;;20.28;56.21094;1006.823;;;;
2019/10/26 10:34:17;;;;;;;5.7;2.9;;;;;;;20.78;54.7041;1006.765;;;;
2019/10/26 10:36:43;;;;;;;5;2.9;;;;;;;21.05;53.9043;1006.722;;;;
2019/10/26 10:39:08;;;;;;;5.8;2.9;;;;;;;20.05;56.47363;1006.704;;;;
2019/10/26 10:41:33;;;;;;;6;2.9;;;;;;;19.12;59.70605;1006.69;;;;
2019/10/26 10:43:58;;;;;;;5.3;2.9;;;;;;;18.32;62.47754;1006.686;;;;
2019/10/26 10:46:23;;;;;;;4.9;2.7;;;;;;;18.49;62.28906;1006.609;;;;
2019/10/26 10:48:49;;;;;;;5.1;2.9;;;;;;;17.94;64.39063;1006.592;;;;
2019/10/26 10:51:14;;;;;;;3.8;2.8;;;;;;;18.29;63.70605;1006.621;;;;
2019/10/26 10:53:39;;;;;;;3.8;2.4;;;;;;;18.39;63.10547;1006.571;;;;
2019/10/26 10:56:04;;;;;;;5.1;2.4;;;;;;;18.6;62.95898;1006.558;;;;
2019/10/26 10:58:29;;;;;;;4.7;2.3;;;;;;;18.48;62.75586;1006.554;;;;
2019/10/26 11:00:55;;;;;;;4.7;2.3;;;;;;;18.06;64.26855;1006.564;;;;
2019/10/26 11:03:20;;;;;;;3.2;2.1;;;;;;;18.51;63.34277;1006.525;;;;
2019/10/26 11:05:45;;;;;;;4.3;2.5;;;;;;;18.5;63.46973;1006.474;;;;
2019/10/26 11:08:11;;;;;;;4.1;2.7;;;;;;;18.24;64.65527;1006.425;;;;
2019/10/26 11:10:35;;;;;;;4.8;2.5;;;;;;;18.35;64.53125;1006.359;;;;
2019/10/26 11:13:00;;;;;;;5;2.8;;;;;;;18.49;64.2832;1006.366;;;;
2019/10/26 11:15:25;;;;;;;6.8;2.4;;;;;;;18.16;65.22656;1006.349;;;;
2019/10/26 11:17:51;;;;;;;5.3;2.6;;;;;;;18.41;64.88965;1006.194;;;;
2019/10/26 11:20:16;;;;;;;5.1;2.7;;;;;;;18.64;64.03711;1006.186;;;;
2019/10/26 11:22:41;;;;;;;4.6;3;;;;;;;18.6;63.66016;1006.121;;;;
2019/10/26 11:25:06;;;;;;;4.4;2.8;;;;;;;18.57;63.73633;1006.05;;;;
2019/10/26 11:27:31;;;;;;;5.2;2.9;;;;;;;18.76;63.35547;1006.006;;;;
2019/10/26 11:29:57;;;;;;;5.6;2.7;;;;;;;18.74;63.18945;1005.978;;;;
2019/10/26 11:32:22;;;;;;;4.3;2.8;;;;;;;18.41;64.86719;1006.011;;;;
2019/10/26 11:34:47;;;;;;;4.2;2.6;;;;;;;18.34;64.92578;1005.992;;;;
2019/10/26 11:37:12;;;;;;;3.8;2.5;;;;;;;18.29;65.10547;1005.967;;;;
2019/10/26 11:39:38;;;;;;;4.7;2.9;;;;;;;18.34;65.00879;1005.93;;;;
2019/10/26 11:42:03;;;;;;;6.7;3.3;;;;;;;18.37;65.04785;1005.865;;;;
2019/10/26 11:44:28;;;;;;;4.5;3.1;;;;;;;18.22;65.71289;1005.888;;;;
2019/10/26 11:46:53;;;;;;;5;3.6;;;;;;;18.02;66.5332;1005.855;;;;
2019/10/26 11:49:18;;;;;;;5.1;3.2;;;;;;;18.04;66.53613;1005.774;;;;
2019/10/26 11:51:43;;;;;;;4.9;3.6;;;;;;;18.08;66.40332;1005.742;;;;
2019/10/26 11:54:09;;;;;;;5;3.4;;;;;;;18.16;66.13477;1005.665;;;;
2019/10/26 11:56:34;;;;;;;4.7;3.3;;;;;;;18.07;66.7041;1005.653;;;;
2019/10/26 11:58:59;;;;;;;4.9;3.3;;;;;;;18.32;65.75195;1005.625;;;;
2019/10/26 12:01:24;;;;;;;8;3.4;;;;;;;18.39;65.99512;1005.621;;;;
2019/10/26 12:03:50;;;;;;;4.8;3.2;;;;;;;18.3;66.12109;1005.548;;;;
2019/10/26 12:06:15;;;;;;;4.1;3.2;;;;;;;18.49;65.36816;1005.567;;;;
2019/10/26 12:08:40;;;;;;;6.2;3.3;;;;;;;18.34;65.5918;1005.566;;;;
2019/10/26 12:11:05;;;;;;;4.4;3;;;;;;;18.57;65.11328;1005.557;;;;
2019/10/26 12:13:30;;;;;;;4.1;3.1;;;;;;;18.49;65.04102;1005.525;;;;
2019/10/26 12:15:55;;;;;;;4.4;3.2;;;;;;;18.47;65.2373;1005.468;;;;
2019/10/26 12:18:21;;;;;;;3.2;2.9;;;;;;;18.51;65.18457;1005.437;;;;
2019/10/26 12:20:46;;;;;;;6.4;2.9;;;;;;;18.54;65.43359;1005.382;;;;
2019/10/26 12:23:11;;;;;;;6.2;3;;;;;;;18.69;64.71094;1005.398;;;;
2019/10/26 12:25:36;;;;;;;4.2;2.9;;;;;;;18.55;65.24902;1005.375;;;;
2019/10/26 12:28:01;;;;;;;5.2;3;;;;;;;18.82;64.16797;1005.329;;;;
2019/10/26 12:30:26;;;;;;;3.8;2.8;;;;;;;18.43;65.30176;1005.368;;;;
2019/10/26 12:32:51;;;;;;;4.1;2.7;;;;;;;18.79;64.56055;1005.285;;;;
2019/10/26 12:35:16;;;;;;;4.1;3;;;;;;;19;64.2998;1005.243;;;;
2019/10/26 12:37:41;;;;;;;5.2;3;;;;;;;18.77;64.2666;1005.23;;;;
2019/10/26 12:40:07;;;;;;;4.7;2.4;;;;;;;18.87;64.37402;1005.225;;;;
2019/10/26 12:42:32;;;;;;;4;2.8;;;;;;;18.66;64.83398;1005.116;;;;
2019/10/26 12:44:57;;;;;;;5.1;2.5;;;;;;;18.59;64.83594;1005.128;;;;
2019/10/26 12:47:22;;;;;;;5.4;3;;;;;;;18.64;65.20313;1005.151;;;;
2019/10/26 12:49:47;;;;;;;4.1;2.7;;;;;;;18.85;64.44141;1005.15;;;;
2019/10/26 12:52:12;;;;;;;4.9;2.6;;;;;;;18.77;64.5;1005.1;;;;
2019/10/26 12:54:38;;;;;;;5.3;2.8;;;;;;;18.84;64.45215;1005.091;;;;
2019/10/26 12:57:03;;;;;;;4.9;2.7;;;;;;;18.93;63.96387;1005.062;;;;
2019/10/26 12:59:28;;;;;;;4.6;2.7;;;;;;;18.96;63.90918;1005.061;;;;
2019/10/26 13:01:53;;;;;;;5.8;2.7;;;;;;;18.83;64.1582;1005.056;;;;
2019/10/26 13:04:18;;;;;;;4;2.6;;;;;;;18.94;63.74316;1005.013;;;;
2019/10/26 13:06:44;;;;;;;4.7;2.9;;;;;;;18.93;64.19824;1005.021;;;;
2019/10/26 13:09:09;;;;;;;4.9;2.8;;;;;;;18.92;64.30078;1005.016;;;;
2019/10/26 13:11:34;;;;;;;3.1;2.5;;;;;;;18.89;64.6582;1004.971;;;;
2019/10/26 13:13:59;;;;;;;5;3;;;;;;;18.95;64.80762;1004.954;;;;
2019/10/26 13:16:24;;;;;;;5;2.7;;;;;;;19.09;64.47852;1004.922;;;;
2019/10/26 13:18:49;;;;;;;3.9;2.6;;;;;;;19.17;63.94043;1004.951;;;;
2019/10/26 13:21:14;;;;;;;5.2;2.7;;;;;;;19.08;64.7207;1004.938;;;;
2019/10/26 13:23:39;;;;;;;4.5;2.5;;;;;;;19.28;63.74414;1004.865;;;;
2019/10/26 13:26:05;;;;;;;4.5;2.5;;;;;;;19.27;64.02441;1004.899;;;;
2019/10/26 13:28:29;;;;;;;4.3;2.7;;;;;;;19.29;64.28516;1004.888;;;;
2019/10/26 13:30:55;;;;;;;5.1;2.8;;;;;;;19.4;63.94922;1004.856;;;;
2019/10/26 13:33:20;;;;;;;7.1;2.9;;;;;;;19.3;63.67871;1004.837;;;;
2019/10/26 13:35:45;;;;;;;4.3;2.9;;;;;;;19.15;64.25195;1004.809;;;;
2019/10/26 13:38:10;;;;;;;3.6;2.6;;;;;;;19.25;64.99121;1004.762;;;;
2019/10/26 13:40:35;;;;;;;5.3;2.9;;;;;;;19.33;65.34082;1004.734;;;;
2019/10/26 13:43:00;;;;;;;5.8;2.8;;;;;;;19.33;64.85059;1004.702;;;;
2019/10/26 13:45:25;;;;;;;3.7;2.7;;;;;;;19.22;65.02246;1004.653;;;;
2019/10/26 13:47:51;;;;;;;6.5;2.7;;;;;;;19.29;64.83301;1004.681;;;;
2019/10/26 13:50:16;;;;;;;5.1;2.7;;;;;;;19.34;65.50586;1004.628;;;;
2019/10/26 13:52:41;;;;;;;5;2.8;;;;;;;19.49;64.36035;1004.653;;;;
2019/10/26 13:55:06;;;;;;;4.3;2.7;;;;;;;19.72;63.86621;1004.64;;;;
2019/10/26 13:57:31;;;;;;;4.6;2.4;;;;;;;19.6;64.15527;1004.635;;;;
2019/10/26 13:59:56;;;;;;;4;2.7;;;;;;;19.54;64.06348;1004.639;;;;
2019/10/26 14:02:21;;;;;;;7.9;3.6;;;;;;;19.63;63.85352;1004.613;;;;
2019/10/26 14:04:46;;;;;;;5;3.6;;;;;;;19.57;64.18457;1004.615;;;;
2019/10/26 14:07:11;;;;;;;3.3;2.3;;;;;;;19.72;62.64063;1004.605;;;;
2019/10/26 14:09:36;;;;;;;3.3;2.2;;;;;;;19.68;62.86816;1004.616;;;;
2019/10/26 14:12:02;;;;;;;3.1;2.2;;;;;;;19.64;62.26563;1004.567;;;;
2019/10/26 14:14:27;;;;;;;2.6;1.9;;;;;;;19.82;60.79492;1004.574;;;;
2019/10/26 14:16:52;;;;;;;3.3;2.1;;;;;;;19.62;61.69141;1004.531;;;;
2019/10/26 14:19:17;;;;;;;3.7;2.2;;;;;;;19.55;61.72656;1004.508;;;;
2019/10/26 14:21:42;;;;;;;5.2;2.1;;;;;;;19.76;60.72754;1004.478;;;;
2019/10/26 14:24:07;;;;;;;3.2;2;;;;;;;19.79;59.98438;1004.476;;;;
2019/10/26 14:26:32;;;;;;;4.2;2.3;;;;;;;19.7;60.53223;1004.445;;;;
2019/10/26 14:28:57;;;;;;;4.7;2;;;;;;;19.59;61.13672;1004.396;;;;
2019/10/26 14:31:22;;;;;;;3.6;2;;;;;;;19.67;61.40527;1004.376;;;;
2019/10/26 14:33:48;;;;;;;3.1;2.1;;;;;;;19.77;60.8457;1004.351;;;;
2019/10/26 14:36:13;;;;;;;3.2;2.4;;;;;;;19.75;60.91406;1004.316;;;;
2019/10/26 14:38:38;;;;;;;4;2;;;;;;;19.76;60.81152;1004.273;;;;
2019/10/26 14:41:03;;;;;;;3.2;2;;;;;;;19.71;61.00195;1004.182;;;;
2019/10/26 14:43:28;;;;;;;2.6;2.1;;;;;;;19.75;61.03027;1004.18;;;;
2019/10/26 14:45:53;;;;;;;4.5;2.3;;;;;;;19.78;61.37402;1004.113;;;;
2019/10/26 14:48:19;;;;;;;4;1.9;;;;;;;19.67;61.65039;1004.175;;;;
2019/10/26 14:50:44;;;;;;;3.5;2.4;;;;;;;19.7;61.87793;1004.18;;;;
2019/10/26 14:53:09;;;;;;;3.4;2.4;;;;;;;19.61;62.12109;1004.224;;;;
2019/10/26 14:55:34;;;;;;;4.7;2.1;;;;;;;19.53;62.42676;1004.251;;;;
2019/10/26 14:57:59;;;;;;;5.9;2;;;;;;;19.56;62.50098;1004.25;;;;
2019/10/26 15:00:24;;;;;;;2.5;1.9;;;;;;;19.54;62.43848;1004.238;;;;
2019/10/26 15:02:50;;;;;;;3.4;2;;;;;;;19.5;63.13574;1004.261;;;;
2019/10/26 15:05:15;;;;;;;2.5;2.1;;;;;;;19.41;63.60059;1004.22;;;;
2019/10/26 15:07:40;;;;;;;2.6;1.8;;;;;;;19.33;63.83398;1004.213;;;;
2019/10/26 15:10:05;;;;;;;6;2.1;;;;;;;19.29;64.20215;1004.184;;;;
2019/10/26 15:12:30;;;;;;;4;2.1;;;;;;;19.28;63.67578;1004.153;;;;
2019/10/26 15:14:55;;;;;;;3;2.1;;;;;;;19.28;63.7207;1004.117;;;;
2019/10/26 15:17:20;;;;;;;4.1;2.1;;;;;;;19.23;64.14648;1004.115;;;;
2019/10/26 15:19:45;;;;;;;3.3;2;;;;;;;19.2;64.30664;1004.139;;;;
2019/10/26 15:22:10;;;;;;;3.3;2.1;;;;;;;19.19;64.22363;1004.142;;;;
2019/10/26 15:24:35;;;;;;;3.7;2.1;;;;;;;19.14;64.35645;1004.163;;;;
2019/10/26 15:27:00;;;;;;;3.3;2;;;;;;;19.1;64.45508;1004.091;;;;
2019/10/26 15:29:26;;;;;;;2.9;2;;;;;;;19.03;64.92285;1004.052;;;;
2019/10/26 15:31:51;;;;;;;4.7;2;;;;;;;19.03;64.53809;1004.052;;;;
2019/10/26 15:34:16;;;;;;;4.6;2.1;;;;;;;18.94;64.875;1004.121;;;;